Kivalina, AK

7:16 PM AKDT on October 21, 2014 (GMT -0800)
Kivalina | Change Station
CLOSE
Current Station
Airport
Location: Kivalina,
Elevation: 10 ft
Nearby Weather Stations

Elev 10 ft 67.73 °N, 164.55 °W | Updated 23 minutes ago

Clear
Clear
25 °F
Feels Like 16 °F
N
9
Wind Variable Wind from NE

Today
High -- | Low -- °F
--% Chance of Precip.
Yesterday
High -- | Low -- °F
Precip. -- in
10:24 AM 6:59 PM
Waning Crescent, 3% visible
Pressure 29.71 in
Visibility 8.0 miles
Clouds Clear
Windchill 16 °F
Dew Point 17 °F
Humidity 72%
Rainfall 0.00 in
Snow Depth Not available.
UV 0 out of 12
Pollen Not available.
Air Quality Not available.
Flu Activity Sporadic
METAR PAVL 220253Z AUTO 04008KT 8SM CLR M04/M08 A2971 RMK AO2 SLP059 T10391083 53009 TSNO

More Conditions Fewer Conditions

Pressure 29.71 in
Visibility 8.0 miles
Clouds Clear
Windchill 16 °F
Dew Point 17 °F
Humidity 72%
Rainfall 0.00 in
Snow Depth Not available.
UV 0 out of 12
Pollen Not available.
Air Quality Not available.
Flu Activity Sporadic
METAR PAVL 220253Z AUTO 04008KT 8SM CLR M04/M08 A2971 RMK AO2 SLP059 T10391083 53009 TSNO

More Conditions Fewer Conditions

10-Day Weather Forecast

Almanac

Astronomy

Oct. 21, 2014 Rise Set
Actual Time 10:24 AM AKDT 6:59 PM AKDT
Civil Twilight 9:25 AM AKDT 7:58 PM AKDT
Nautical Twilight 8:21 AM AKDT 9:01 PM AKDT
Astronomical Twilight 7:17 AM AKDT 10:05 PM AKDT
Moon 7:27 AM AKDT (10/21) 6:42 PM AKDT (10/21)
Length of Visible Light 10h 32m
Length of Day
8h 35m
Tomorrow will be 7m 57s shorter.
Waning Crescent, 3% of the Moon is Illuminated
Today
Waning Crescent
Oct 23
New
Oct 30
First Quarter
Nov 6
Full
Nov 14
Last Quarter

Today's Extremes

State Highs State Lows

Community

WunderPhotos

Upload Photos

1,763,869 photos uploaded!

Nearby

Snow Depth

Station Depth Elevation
Rocky Point 3 in 500 ft
Gobblers Knob 1 in 2030 ft
Coldfoot 5 in 1040 ft
Atigun Pass 12 in 4800 ft
Imnaviat Creek 21 in 3050 ft

Earthquake Activity

City Distance Mag. Time & Date
No recent earthquake activity has been reported nearby.
Minimum magnitude displayed is 2.5.

Coastal Water Temperatures

Place Temperature
No Stations Reporting

Nearby Weather Stations